sensor_id;sensor_type;location;lat;lon;timestamp;P1;durP1;ratioP1;P2;durP2;ratioP2
37609;SDS011;23457;51.966;8.230;2023-02-03T00:01:01;49.88;;;27.55;;
37609;SDS011;23457;51.966;8.230;2023-02-03T00:03:28;44.45;;;29.45;;
37609;SDS011;23457;51.966;8.230;2023-02-03T00:05:55;40.50;;;27.80;;
37609;SDS011;23457;51.966;8.230;2023-02-03T00:08:22;45.30;;;31.13;;
37609;SDS011;23457;51.966;8.230;2023-02-03T00:10:48;49.72;;;31.27;;
37609;SDS011;23457;51.966;8.230;2023-02-03T00:13:16;47.00;;;30.75;;
37609;SDS011;23457;51.966;8.230;2023-02-03T00:15:43;48.70;;;30.20;;
37609;SDS011;23457;51.966;8.230;2023-02-03T00:18:09;50.85;;;29.42;;
37609;SDS011;23457;51.966;8.230;2023-02-03T00:20:36;50.05;;;29.58;;
37609;SDS011;23457;51.966;8.230;2023-02-03T00:23:06;44.70;;;29.88;;
37609;SDS011;23457;51.966;8.230;2023-02-03T00:25:35;56.97;;;31.33;;
37609;SDS011;23457;51.966;8.230;2023-02-03T00:28:02;51.53;;;30.73;;
37609;SDS011;23457;51.966;8.230;2023-02-03T00:30:30;46.00;;;28.88;;
37609;SDS011;23457;51.966;8.230;2023-02-03T00:32:59;43.10;;;29.27;;
37609;SDS011;23457;51.966;8.230;2023-02-03T00:35:26;44.58;;;30.10;;
37609;SDS011;23457;51.966;8.230;2023-02-03T00:37:54;43.20;;;29.02;;
37609;SDS011;23457;51.966;8.230;2023-02-03T00:40:22;56.33;;;30.88;;
37609;SDS011;23457;51.966;8.230;2023-02-03T00:42:51;46.53;;;30.30;;
37609;SDS011;23457;51.966;8.230;2023-02-03T00:45:18;46.40;;;29.70;;
37609;SDS011;23457;51.966;8.230;2023-02-03T00:47:44;44.05;;;28.88;;
37609;SDS011;23457;51.966;8.230;2023-02-03T00:50:12;43.92;;;29.63;;
37609;SDS011;23457;51.966;8.230;2023-02-03T00:52:38;47.40;;;29.80;;
37609;SDS011;23457;51.966;8.230;2023-02-03T00:55:05;45.55;;;30.33;;
37609;SDS011;23457;51.966;8.230;2023-02-03T00:57:32;46.90;;;29.35;;
37609;SDS011;23457;51.966;8.230;2023-02-03T00:59:59;42.65;;;28.85;;
37609;SDS011;23457;51.966;8.230;2023-02-03T01:02:25;54.70;;;29.95;;
37609;SDS011;23457;51.966;8.230;2023-02-03T01:04:52;43.78;;;28.65;;
37609;SDS011;23457;51.966;8.230;2023-02-03T01:07:19;47.83;;;29.02;;
37609;SDS011;23457;51.966;8.230;2023-02-03T01:09:47;48.00;;;29.25;;
37609;SDS011;23457;51.966;8.230;2023-02-03T01:12:14;45.50;;;27.90;;
37609;SDS011;23457;51.966;8.230;2023-02-03T01:14:40;44.72;;;28.42;;
37609;SDS011;23457;51.966;8.230;2023-02-03T01:17:07;44.78;;;28.38;;
37609;SDS011;23457;51.966;8.230;2023-02-03T01:19:34;48.20;;;28.33;;
37609;SDS011;23457;51.966;8.230;2023-02-03T01:22:00;45.45;;;28.35;;
37609;SDS011;23457;51.966;8.230;2023-02-03T01:24:28;45.45;;;26.88;;
37609;SDS011;23457;51.966;8.230;2023-02-03T01:26:56;45.58;;;27.25;;
37609;SDS011;23457;51.966;8.230;2023-02-03T01:29:22;43.05;;;25.98;;
37609;SDS011;23457;51.966;8.230;2023-02-03T01:31:49;41.78;;;26.35;;
37609;SDS011;23457;51.966;8.230;2023-02-03T01:34:16;42.75;;;25.35;;
37609;SDS011;23457;51.966;8.230;2023-02-03T01:36:43;43.35;;;26.00;;
37609;SDS011;23457;51.966;8.230;2023-02-03T01:39:12;40.15;;;24.92;;
37609;SDS011;23457;51.966;8.230;2023-02-03T01:41:39;38.83;;;25.00;;
37609;SDS011;23457;51.966;8.230;2023-02-03T01:52:39;40.25;;;24.27;;
37609;SDS011;23457;51.966;8.230;2023-02-03T01:55:09;42.30;;;23.13;;
37609;SDS011;23457;51.966;8.230;2023-02-03T01:57:41;36.10;;;23.10;;
37609;SDS011;23457;51.966;8.230;2023-02-03T02:00:24;42.53;;;23.33;;
37609;SDS011;23457;51.966;8.230;2023-02-03T02:02:53;40.95;;;21.48;;
37609;SDS011;23457;51.966;8.230;2023-02-03T02:05:26;39.03;;;22.48;;
37609;SDS011;23457;51.966;8.230;2023-02-03T02:07:57;38.92;;;22.10;;
37609;SDS011;23457;51.966;8.230;2023-02-03T02:10:27;32.13;;;21.08;;
37609;SDS011;23457;51.966;8.230;2023-02-03T02:12:56;35.83;;;21.40;;
37609;SDS011;23457;51.966;8.230;2023-02-03T02:15:26;31.83;;;20.25;;
37609;SDS011;23457;51.966;8.230;2023-02-03T02:49:38;33.42;;;18.33;;
37609;SDS011;23457;51.966;8.230;2023-02-03T02:52:10;32.47;;;18.52;;
37609;SDS011;23457;51.966;8.230;2023-02-03T02:54:41;31.40;;;17.13;;
37609;SDS011;23457;51.966;8.230;2023-02-03T02:57:19;33.03;;;16.17;;
37609;SDS011;23457;51.966;8.230;2023-02-03T02:59:49;31.73;;;17.55;;
37609;SDS011;23457;51.966;8.230;2023-02-03T03:02:15;35.05;;;16.85;;
37609;SDS011;23457;51.966;8.230;2023-02-03T03:04:42;29.27;;;16.65;;
37609;SDS011;23457;51.966;8.230;2023-02-03T03:07:15;30.25;;;15.82;;
37609;SDS011;23457;51.966;8.230;2023-02-03T03:09:46;31.27;;;15.90;;
37609;SDS011;23457;51.966;8.230;2023-02-03T03:12:18;27.13;;;15.07;;
37609;SDS011;23457;51.966;8.230;2023-02-03T03:15:24;35.45;;;15.77;;
37609;SDS011;23457;51.966;8.230;2023-02-03T03:17:50;24.20;;;14.63;;
37609;SDS011;23457;51.966;8.230;2023-02-03T03:20:25;35.67;;;14.80;;
37609;SDS011;23457;51.966;8.230;2023-02-03T03:22:55;22.65;;;13.68;;
37609;SDS011;23457;51.966;8.230;2023-02-03T03:28:51;32.05;;;14.50;;
37609;SDS011;23457;51.966;8.230;2023-02-03T03:31:23;29.17;;;14.45;;
37609;SDS011;23457;51.966;8.230;2023-02-03T03:33:51;30.13;;;14.15;;
37609;SDS011;23457;51.966;8.230;2023-02-03T03:36:26;27.90;;;14.63;;
37609;SDS011;23457;51.966;8.230;2023-02-03T03:44:25;29.73;;;13.90;;
37609;SDS011;23457;51.966;8.230;2023-02-03T03:47:05;24.45;;;14.23;;
37609;SDS011;23457;51.966;8.230;2023-02-03T03:49:37;26.38;;;13.45;;
37609;SDS011;23457;51.966;8.230;2023-02-03T03:54:35;25.02;;;13.50;;
37609;SDS011;23457;51.966;8.230;2023-02-03T03:57:14;22.73;;;12.60;;
37609;SDS011;23457;51.966;8.230;2023-02-03T03:59:49;27.58;;;12.07;;
37609;SDS011;23457;51.966;8.230;2023-02-03T04:02:17;27.70;;;11.98;;
37609;SDS011;23457;51.966;8.230;2023-02-03T04:04:45;27.88;;;12.05;;
37609;SDS011;23457;51.966;8.230;2023-02-03T04:07:13;27.08;;;13.60;;
37609;SDS011;23457;51.966;8.230;2023-02-03T04:09:41;23.35;;;11.52;;
37609;SDS011;23457;51.966;8.230;2023-02-03T04:12:12;27.67;;;11.75;;
37609;SDS011;23457;51.966;8.230;2023-02-03T04:14:47;26.23;;;11.75;;
37609;SDS011;23457;51.966;8.230;2023-02-03T04:17:13;31.73;;;11.60;;
37609;SDS011;23457;51.966;8.230;2023-02-03T04:19:40;23.33;;;11.43;;
37609;SDS011;23457;51.966;8.230;2023-02-03T04:22:07;22.90;;;11.57;;
37609;SDS011;23457;51.966;8.230;2023-02-03T04:24:33;25.88;;;11.50;;
37609;SDS011;23457;51.966;8.230;2023-02-03T04:27:00;20.75;;;10.43;;
37609;SDS011;23457;51.966;8.230;2023-02-03T04:29:30;21.60;;;10.68;;
37609;SDS011;23457;51.966;8.230;2023-02-03T04:31:56;23.50;;;10.57;;
37609;SDS011;23457;51.966;8.230;2023-02-03T04:34:23;20.17;;;9.50;;
37609;SDS011;23457;51.966;8.230;2023-02-03T04:36:49;20.77;;;9.73;;
37609;SDS011;23457;51.966;8.230;2023-02-03T04:39:16;21.63;;;9.88;;
37609;SDS011;23457;51.966;8.230;2023-02-03T04:41:43;23.90;;;10.07;;
37609;SDS011;23457;51.966;8.230;2023-02-03T04:44:09;19.85;;;9.38;;
37609;SDS011;23457;51.966;8.230;2023-02-03T04:46:36;17.73;;;10.38;;
37609;SDS011;23457;51.966;8.230;2023-02-03T04:49:02;21.30;;;9.60;;
37609;SDS011;23457;51.966;8.230;2023-02-03T04:51:29;21.52;;;9.50;;
37609;SDS011;23457;51.966;8.230;2023-02-03T04:53:56;17.30;;;8.48;;
37609;SDS011;23457;51.966;8.230;2023-02-03T04:56:22;22.55;;;9.82;;
37609;SDS011;23457;51.966;8.230;2023-02-03T04:58:49;20.98;;;9.38;;
37609;SDS011;23457;51.966;8.230;2023-02-03T05:01:15;26.30;;;9.02;;
37609;SDS011;23457;51.966;8.230;2023-02-03T05:03:42;23.02;;;9.13;;
37609;SDS011;23457;51.966;8.230;2023-02-03T05:06:09;27.33;;;9.38;;
37609;SDS011;23457;51.966;8.230;2023-02-03T05:08:35;26.00;;;9.13;;
37609;SDS011;23457;51.966;8.230;2023-02-03T05:11:02;21.85;;;9.85;;
37609;SDS011;23457;51.966;8.230;2023-02-03T05:13:31;22.30;;;8.73;;
37609;SDS011;23457;51.966;8.230;2023-02-03T05:15:58;19.48;;;9.45;;
37609;SDS011;23457;51.966;8.230;2023-02-03T05:18:24;16.45;;;8.77;;
37609;SDS011;23457;51.966;8.230;2023-02-03T05:20:51;20.77;;;8.75;;
37609;SDS011;23457;51.966;8.230;2023-02-03T05:23:18;20.33;;;8.80;;
37609;SDS011;23457;51.966;8.230;2023-02-03T05:25:44;20.88;;;8.65;;
37609;SDS011;23457;51.966;8.230;2023-02-03T05:28:11;21.05;;;9.20;;
37609;SDS011;23457;51.966;8.230;2023-02-03T05:30:38;19.73;;;8.75;;
37609;SDS011;23457;51.966;8.230;2023-02-03T05:33:04;21.20;;;8.48;;
37609;SDS011;23457;51.966;8.230;2023-02-03T05:35:31;21.92;;;8.70;;
37609;SDS011;23457;51.966;8.230;2023-02-03T05:37:58;23.30;;;8.45;;
37609;SDS011;23457;51.966;8.230;2023-02-03T05:40:25;16.20;;;8.13;;
37609;SDS011;23457;51.966;8.230;2023-02-03T05:43:11;25.25;;;8.00;;
37609;SDS011;23457;51.966;8.230;2023-02-03T05:45:38;18.00;;;8.23;;
37609;SDS011;23457;51.966;8.230;2023-02-03T05:48:05;14.57;;;8.73;;
37609;SDS011;23457;51.966;8.230;2023-02-03T05:50:35;22.58;;;7.90;;
37609;SDS011;23457;51.966;8.230;2023-02-03T05:53:07;18.35;;;8.20;;
37609;SDS011;23457;51.966;8.230;2023-02-03T05:55:34;19.50;;;7.75;;
37609;SDS011;23457;51.966;8.230;2023-02-03T05:58:02;17.63;;;8.73;;
37609;SDS011;23457;51.966;8.230;2023-02-03T06:00:29;18.65;;;7.70;;
37609;SDS011;23457;51.966;8.230;2023-02-03T06:02:57;16.45;;;7.47;;
37609;SDS011;23457;51.966;8.230;2023-02-03T06:05:25;15.93;;;7.25;;
37609;SDS011;23457;51.966;8.230;2023-02-03T06:07:52;14.90;;;7.30;;
37609;SDS011;23457;51.966;8.230;2023-02-03T06:10:20;22.65;;;6.88;;
37609;SDS011;23457;51.966;8.230;2023-02-03T06:12:47;19.55;;;6.95;;
37609;SDS011;23457;51.966;8.230;2023-02-03T06:15:14;14.40;;;6.95;;
37609;SDS011;23457;51.966;8.230;2023-02-03T06:17:45;15.80;;;7.45;;
37609;SDS011;23457;51.966;8.230;2023-02-03T06:20:14;18.30;;;6.95;;
37609;SDS011;23457;51.966;8.230;2023-02-03T06:22:43;18.00;;;8.35;;
37609;SDS011;23457;51.966;8.230;2023-02-03T06:25:10;17.27;;;7.53;;
37609;SDS011;23457;51.966;8.230;2023-02-03T06:27:39;15.73;;;7.82;;
37609;SDS011;23457;51.966;8.230;2023-02-03T06:30:06;17.77;;;7.57;;
37609;SDS011;23457;51.966;8.230;2023-02-03T06:32:33;23.80;;;7.78;;
37609;SDS011;23457;51.966;8.230;2023-02-03T06:35:01;22.38;;;8.35;;
37609;SDS011;23457;51.966;8.230;2023-02-03T06:37:28;22.67;;;7.25;;
37609;SDS011;23457;51.966;8.230;2023-02-03T06:39:55;15.52;;;7.35;;
37609;SDS011;23457;51.966;8.230;2023-02-03T06:42:21;19.95;;;7.07;;
37609;SDS011;23457;51.966;8.230;2023-02-03T06:44:48;20.42;;;7.35;;
37609;SDS011;23457;51.966;8.230;2023-02-03T06:47:14;16.17;;;7.07;;
37609;SDS011;23457;51.966;8.230;2023-02-03T06:49:41;16.65;;;6.88;;
37609;SDS011;23457;51.966;8.230;2023-02-03T06:52:08;16.10;;;7.00;;
37609;SDS011;23457;51.966;8.230;2023-02-03T06:54:34;17.40;;;7.43;;
37609;SDS011;23457;51.966;8.230;2023-02-03T06:57:01;14.18;;;6.45;;
37609;SDS011;23457;51.966;8.230;2023-02-03T06:59:27;13.15;;;6.53;;
37609;SDS011;23457;51.966;8.230;2023-02-03T07:01:54;14.75;;;6.70;;
37609;SDS011;23457;51.966;8.230;2023-02-03T07:04:21;16.67;;;7.03;;
37609;SDS011;23457;51.966;8.230;2023-02-03T07:06:47;17.90;;;6.78;;
37609;SDS011;23457;51.966;8.230;2023-02-03T07:09:14;18.30;;;6.95;;
37609;SDS011;23457;51.966;8.230;2023-02-03T07:11:41;14.57;;;6.70;;
37609;SDS011;23457;51.966;8.230;2023-02-03T07:14:07;17.15;;;6.20;;
37609;SDS011;23457;51.966;8.230;2023-02-03T07:16:34;15.25;;;6.03;;
37609;SDS011;23457;51.966;8.230;2023-02-03T07:19:03;16.52;;;6.63;;
37609;SDS011;23457;51.966;8.230;2023-02-03T07:21:31;19.77;;;7.25;;
37609;SDS011;23457;51.966;8.230;2023-02-03T07:23:58;12.52;;;6.78;;
37609;SDS011;23457;51.966;8.230;2023-02-03T07:26:24;18.13;;;7.20;;
37609;SDS011;23457;51.966;8.230;2023-02-03T07:28:51;20.42;;;6.80;;
37609;SDS011;23457;51.966;8.230;2023-02-03T07:31:19;21.88;;;7.35;;
37609;SDS011;23457;51.966;8.230;2023-02-03T07:36:15;13.95;;;6.38;;
37609;SDS011;23457;51.966;8.230;2023-02-03T07:38:42;19.08;;;6.80;;
37609;SDS011;23457;51.966;8.230;2023-02-03T07:41:08;20.63;;;7.30;;
37609;SDS011;23457;51.966;8.230;2023-02-03T07:43:35;17.40;;;7.38;;
37609;SDS011;23457;51.966;8.230;2023-02-03T07:46:02;13.00;;;6.75;;
37609;SDS011;23457;51.966;8.230;2023-02-03T07:48:29;21.23;;;7.00;;
37609;SDS011;23457;51.966;8.230;2023-02-03T07:50:55;19.10;;;7.10;;
37609;SDS011;23457;51.966;8.230;2023-02-03T07:53:22;23.58;;;7.85;;
37609;SDS011;23457;51.966;8.230;2023-02-03T07:55:49;22.70;;;7.47;;
37609;SDS011;23457;51.966;8.230;2023-02-03T07:58:15;17.38;;;8.18;;
37609;SDS011;23457;51.966;8.230;2023-02-03T08:00:42;20.75;;;8.30;;
37609;SDS011;23457;51.966;8.230;2023-02-03T08:03:09;15.88;;;8.98;;
37609;SDS011;23457;51.966;8.230;2023-02-03T08:05:35;22.48;;;8.95;;
37609;SDS011;23457;51.966;8.230;2023-02-03T08:08:02;18.80;;;9.27;;
37609;SDS011;23457;51.966;8.230;2023-02-03T08:10:29;24.60;;;10.55;;
37609;SDS011;23457;51.966;8.230;2023-02-03T08:12:56;17.23;;;9.10;;
37609;SDS011;23457;51.966;8.230;2023-02-03T08:15:23;23.63;;;10.27;;
37609;SDS011;23457;51.966;8.230;2023-02-03T08:17:49;26.02;;;10.85;;
37609;SDS011;23457;51.966;8.230;2023-02-03T08:20:16;26.02;;;10.60;;
37609;SDS011;23457;51.966;8.230;2023-02-03T08:22:43;17.67;;;9.82;;
37609;SDS011;23457;51.966;8.230;2023-02-03T08:25:11;21.48;;;10.75;;
37609;SDS011;23457;51.966;8.230;2023-02-03T08:27:38;21.35;;;11.40;;
37609;SDS011;23457;51.966;8.230;2023-02-03T08:30:06;25.92;;;12.13;;
37609;SDS011;23457;51.966;8.230;2023-02-03T08:32:34;20.90;;;10.73;;
37609;SDS011;23457;51.966;8.230;2023-02-03T08:35:01;24.55;;;11.32;;
37609;SDS011;23457;51.966;8.230;2023-02-03T08:37:28;24.52;;;11.40;;
37609;SDS011;23457;51.966;8.230;2023-02-03T08:39:57;18.52;;;11.52;;
37609;SDS011;23457;51.966;8.230;2023-02-03T08:42:25;29.17;;;12.23;;
37609;SDS011;23457;51.966;8.230;2023-02-03T08:44:52;25.70;;;11.77;;
37609;SDS011;23457;51.966;8.230;2023-02-03T08:47:18;22.42;;;10.45;;
37609;SDS011;23457;51.966;8.230;2023-02-03T08:49:45;26.50;;;11.65;;
37609;SDS011;23457;51.966;8.230;2023-02-03T08:52:12;24.45;;;10.50;;
37609;SDS011;23457;51.966;8.230;2023-02-03T08:54:39;27.20;;;11.13;;
37609;SDS011;23457;51.966;8.230;2023-02-03T08:57:06;24.83;;;10.13;;
37609;SDS011;23457;51.966;8.230;2023-02-03T08:59:34;16.60;;;8.98;;
37609;SDS011;23457;51.966;8.230;2023-02-03T09:02:03;20.50;;;9.77;;
37609;SDS011;23457;51.966;8.230;2023-02-03T09:04:31;21.90;;;9.50;;
37609;SDS011;23457;51.966;8.230;2023-02-03T09:06:59;24.80;;;8.80;;
37609;SDS011;23457;51.966;8.230;2023-02-03T09:09:26;32.90;;;10.13;;
37609;SDS011;23457;51.966;8.230;2023-02-03T09:11:54;25.67;;;10.55;;
37609;SDS011;23457;51.966;8.230;2023-02-03T09:14:30;21.77;;;9.32;;
37609;SDS011;23457;51.966;8.230;2023-02-03T09:16:59;21.52;;;8.57;;
37609;SDS011;23457;51.966;8.230;2023-02-03T09:19:27;23.03;;;9.03;;
37609;SDS011;23457;51.966;8.230;2023-02-03T09:21:53;18.42;;;8.07;;
37609;SDS011;23457;51.966;8.230;2023-02-03T09:24:22;19.35;;;7.88;;
37609;SDS011;23457;51.966;8.230;2023-02-03T09:26:49;17.70;;;8.10;;
37609;SDS011;23457;51.966;8.230;2023-02-03T09:29:16;28.25;;;8.45;;
37609;SDS011;23457;51.966;8.230;2023-02-03T09:31:43;18.17;;;7.65;;
37609;SDS011;23457;51.966;8.230;2023-02-03T09:34:12;26.30;;;7.45;;
37609;SDS011;23457;51.966;8.230;2023-02-03T09:36:38;18.83;;;7.00;;
37609;SDS011;23457;51.966;8.230;2023-02-03T09:39:08;18.00;;;8.60;;
37609;SDS011;23457;51.966;8.230;2023-02-03T09:47:04;18.92;;;7.22;;
37609;SDS011;23457;51.966;8.230;2023-02-03T09:52:22;15.45;;;7.25;;
37609;SDS011;23457;51.966;8.230;2023-02-03T09:55:33;24.33;;;7.05;;
37609;SDS011;23457;51.966;8.230;2023-02-03T10:00:35;15.55;;;7.63;;
37609;SDS011;23457;51.966;8.230;2023-02-03T10:06:08;20.08;;;6.13;;
37609;SDS011;23457;51.966;8.230;2023-02-03T10:08:55;19.98;;;6.90;;
37609;SDS011;23457;51.966;8.230;2023-02-03T10:19:58;23.40;;;6.05;;
37609;SDS011;23457;51.966;8.230;2023-02-03T10:22:47;21.05;;;6.40;;
37609;SDS011;23457;51.966;8.230;2023-02-03T10:25:20;16.58;;;6.45;;
37609;SDS011;23457;51.966;8.230;2023-02-03T10:27:54;15.93;;;6.93;;
37609;SDS011;23457;51.966;8.230;2023-02-03T10:30:25;13.23;;;5.55;;
37609;SDS011;23457;51.966;8.230;2023-02-03T10:32:56;17.23;;;6.30;;
37609;SDS011;23457;51.966;8.230;2023-02-03T10:35:31;14.38;;;5.57;;
37609;SDS011;23457;51.966;8.230;2023-02-03T10:38:07;22.48;;;6.40;;
37609;SDS011;23457;51.966;8.230;2023-02-03T10:40:40;18.67;;;6.55;;
37609;SDS011;23457;51.966;8.230;2023-02-03T10:43:08;20.95;;;6.43;;
37609;SDS011;23457;51.966;8.230;2023-02-03T10:45:54;22.67;;;6.50;;
37609;SDS011;23457;51.966;8.230;2023-02-03T10:48:22;19.42;;;6.28;;
37609;SDS011;23457;51.966;8.230;2023-02-03T10:50:50;22.05;;;6.82;;
37609;SDS011;23457;51.966;8.230;2023-02-03T10:53:25;18.92;;;5.70;;
37609;SDS011;23457;51.966;8.230;2023-02-03T10:58:37;16.55;;;5.30;;
37609;SDS011;23457;51.966;8.230;2023-02-03T11:01:07;22.23;;;6.05;;
37609;SDS011;23457;51.966;8.230;2023-02-03T11:03:43;14.30;;;5.50;;
37609;SDS011;23457;51.966;8.230;2023-02-03T11:06:23;14.13;;;4.30;;
37609;SDS011;23457;51.966;8.230;2023-02-03T11:08:50;14.73;;;4.80;;
37609;SDS011;23457;51.966;8.230;2023-02-03T11:16:29;14.20;;;4.68;;
37609;SDS011;23457;51.966;8.230;2023-02-03T11:21:46;23.80;;;5.05;;
37609;SDS011;23457;51.966;8.230;2023-02-03T11:24:19;18.65;;;4.35;;
37609;SDS011;23457;51.966;8.230;2023-02-03T11:29:29;13.65;;;3.90;;
37609;SDS011;23457;51.966;8.230;2023-02-03T11:32:13;15.85;;;3.72;;
37609;SDS011;23457;51.966;8.230;2023-02-03T11:34:55;13.40;;;3.33;;
37609;SDS011;23457;51.966;8.230;2023-02-03T11:42:40;16.73;;;3.50;;
37609;SDS011;23457;51.966;8.230;2023-02-03T11:47:55;20.70;;;3.50;;
37609;SDS011;23457;51.966;8.230;2023-02-03T11:50:36;17.67;;;2.88;;
37609;SDS011;23457;51.966;8.230;2023-02-03T11:58:56;13.60;;;3.33;;
37609;SDS011;23457;51.966;8.230;2023-02-03T12:04:39;15.63;;;3.90;;
37609;SDS011;23457;51.966;8.230;2023-02-03T12:07:30;21.48;;;3.78;;
37609;SDS011;23457;51.966;8.230;2023-02-03T12:12:39;22.15;;;4.72;;
37609;SDS011;23457;51.966;8.230;2023-02-03T12:31:15;21.17;;;3.45;;
37609;SDS011;23457;51.966;8.230;2023-02-03T12:33:51;23.83;;;4.38;;
37609;SDS011;23457;51.966;8.230;2023-02-03T12:36:49;23.15;;;4.65;;
37609;SDS011;23457;51.966;8.230;2023-02-03T12:39:25;24.30;;;4.72;;
37609;SDS011;23457;51.966;8.230;2023-02-03T12:42:00;23.52;;;5.53;;
37609;SDS011;23457;51.966;8.230;2023-02-03T12:44:33;20.13;;;3.40;;
37609;SDS011;23457;51.966;8.230;2023-02-03T12:47:24;27.23;;;4.40;;
37609;SDS011;23457;51.966;8.230;2023-02-03T12:50:22;22.73;;;4.10;;
37609;SDS011;23457;51.966;8.230;2023-02-03T12:52:53;22.70;;;3.85;;
37609;SDS011;23457;51.966;8.230;2023-02-03T12:55:27;23.63;;;4.25;;
37609;SDS011;23457;51.966;8.230;2023-02-03T12:58:12;21.17;;;3.92;;
37609;SDS011;23457;51.966;8.230;2023-02-03T13:00:56;24.30;;;5.65;;
37609;SDS011;23457;51.966;8.230;2023-02-03T13:06:14;34.42;;;4.75;;
37609;SDS011;23457;51.966;8.230;2023-02-03T13:17:10;23.90;;;4.40;;
37609;SDS011;23457;51.966;8.230;2023-02-03T13:20:12;25.05;;;5.05;;
37609;SDS011;23457;51.966;8.230;2023-02-03T13:22:44;32.20;;;5.75;;
37609;SDS011;23457;51.966;8.230;2023-02-03T13:25:16;32.15;;;4.75;;
37609;SDS011;23457;51.966;8.230;2023-02-03T13:38:38;28.92;;;4.43;;
37609;SDS011;23457;51.966;8.230;2023-02-03T13:41:29;25.27;;;4.35;;
37609;SDS011;23457;51.966;8.230;2023-02-03T13:44:00;27.00;;;3.95;;
37609;SDS011;23457;51.966;8.230;2023-02-03T13:46:31;31.42;;;6.22;;
37609;SDS011;23457;51.966;8.230;2023-02-03T13:49:01;30.48;;;4.95;;
37609;SDS011;23457;51.966;8.230;2023-02-03T13:51:31;32.80;;;5.15;;
37609;SDS011;23457;51.966;8.230;2023-02-03T13:54:24;25.85;;;4.68;;
37609;SDS011;23457;51.966;8.230;2023-02-03T13:57:04;34.55;;;5.13;;
37609;SDS011;23457;51.966;8.230;2023-02-03T13:59:44;27.95;;;5.45;;
37609;SDS011;23457;51.966;8.230;2023-02-03T14:20:57;35.95;;;4.72;;
37609;SDS011;23457;51.966;8.230;2023-02-03T14:23:44;33.70;;;5.25;;
37609;SDS011;23457;51.966;8.230;2023-02-03T14:26:18;36.03;;;4.88;;
37609;SDS011;23457;51.966;8.230;2023-02-03T14:28:49;30.05;;;4.75;;
37609;SDS011;23457;51.966;8.230;2023-02-03T14:31:19;28.08;;;4.72;;
37609;SDS011;23457;51.966;8.230;2023-02-03T14:36:49;24.45;;;4.30;;
37609;SDS011;23457;51.966;8.230;2023-02-03T14:39:24;28.33;;;4.78;;
37609;SDS011;23457;51.966;8.230;2023-02-03T14:42:08;28.17;;;4.78;;
37609;SDS011;23457;51.966;8.230;2023-02-03T14:49:57;29.60;;;4.90;;
37609;SDS011;23457;51.966;8.230;2023-02-03T14:52:53;31.95;;;5.72;;
37609;SDS011;23457;51.966;8.230;2023-02-03T14:58:20;22.27;;;4.15;;
37609;SDS011;23457;51.966;8.230;2023-02-03T15:00:56;24.85;;;4.07;;
37609;SDS011;23457;51.966;8.230;2023-02-03T15:03:24;39.55;;;5.38;;
37609;SDS011;23457;51.966;8.230;2023-02-03T15:05:59;28.88;;;4.47;;
37609;SDS011;23457;51.966;8.230;2023-02-03T15:08:32;35.28;;;5.25;;
37609;SDS011;23457;51.966;8.230;2023-02-03T15:13:51;30.50;;;5.20;;
37609;SDS011;23457;51.966;8.230;2023-02-03T15:16:20;27.33;;;3.80;;
37609;SDS011;23457;51.966;8.230;2023-02-03T15:18:52;31.33;;;5.53;;
37609;SDS011;23457;51.966;8.230;2023-02-03T15:21:23;36.55;;;4.60;;
37609;SDS011;23457;51.966;8.230;2023-02-03T15:23:50;25.50;;;4.15;;
37609;SDS011;23457;51.966;8.230;2023-02-03T15:26:22;29.52;;;4.28;;
37609;SDS011;23457;51.966;8.230;2023-02-03T15:28:57;26.13;;;5.15;;
37609;SDS011;23457;51.966;8.230;2023-02-03T15:31:33;39.92;;;4.82;;
37609;SDS011;23457;51.966;8.230;2023-02-03T15:34:38;21.20;;;4.07;;
37609;SDS011;23457;51.966;8.230;2023-02-03T15:37:05;24.15;;;3.58;;
37609;SDS011;23457;51.966;8.230;2023-02-03T15:39:46;32.85;;;4.20;;
37609;SDS011;23457;51.966;8.230;2023-02-03T15:47:55;27.50;;;4.28;;
37609;SDS011;23457;51.966;8.230;2023-02-03T15:50:40;25.50;;;4.65;;
37609;SDS011;23457;51.966;8.230;2023-02-03T15:53:16;29.77;;;5.25;;
37609;SDS011;23457;51.966;8.230;2023-02-03T15:55:48;26.70;;;4.47;;
37609;SDS011;23457;51.966;8.230;2023-02-03T15:58:25;35.25;;;5.97;;
37609;SDS011;23457;51.966;8.230;2023-02-03T16:00:54;28.70;;;4.82;;
37609;SDS011;23457;51.966;8.230;2023-02-03T16:03:32;30.27;;;5.68;;
37609;SDS011;23457;51.966;8.230;2023-02-03T16:06:05;26.33;;;4.43;;
37609;SDS011;23457;51.966;8.230;2023-02-03T16:08:40;32.30;;;5.85;;
37609;SDS011;23457;51.966;8.230;2023-02-03T16:11:24;26.30;;;4.80;;
37609;SDS011;23457;51.966;8.230;2023-02-03T16:13:55;35.72;;;5.63;;
37609;SDS011;23457;51.966;8.230;2023-02-03T16:16:29;26.13;;;4.32;;
37609;SDS011;23457;51.966;8.230;2023-02-03T16:18:59;31.25;;;7.10;;
37609;SDS011;23457;51.966;8.230;2023-02-03T16:21:34;34.53;;;5.32;;
37609;SDS011;23457;51.966;8.230;2023-02-03T16:24:03;24.85;;;4.40;;
37609;SDS011;23457;51.966;8.230;2023-02-03T16:26:31;36.50;;;5.50;;
37609;SDS011;23457;51.966;8.230;2023-02-03T16:31:56;25.25;;;4.30;;
37609;SDS011;23457;51.966;8.230;2023-02-03T16:34:42;36.38;;;5.60;;
37609;SDS011;23457;51.966;8.230;2023-02-03T16:37:32;33.42;;;5.18;;
37609;SDS011;23457;51.966;8.230;2023-02-03T16:40:25;34.75;;;5.03;;
37609;SDS011;23457;51.966;8.230;2023-02-03T16:43:11;35.38;;;4.80;;
37609;SDS011;23457;51.966;8.230;2023-02-03T16:45:58;33.90;;;5.25;;
37609;SDS011;23457;51.966;8.230;2023-02-03T16:48:44;35.47;;;5.28;;
37609;SDS011;23457;51.966;8.230;2023-02-03T16:51:39;38.53;;;5.28;;
37609;SDS011;23457;51.966;8.230;2023-02-03T16:54:11;32.63;;;5.07;;
37609;SDS011;23457;51.966;8.230;2023-02-03T16:56:39;38.75;;;6.13;;
37609;SDS011;23457;51.966;8.230;2023-02-03T16:59:06;28.60;;;4.85;;
37609;SDS011;23457;51.966;8.230;2023-02-03T17:01:33;31.40;;;5.30;;
37609;SDS011;23457;51.966;8.230;2023-02-03T17:04:00;34.55;;;6.63;;
37609;SDS011;23457;51.966;8.230;2023-02-03T17:06:27;31.15;;;5.03;;
37609;SDS011;23457;51.966;8.230;2023-02-03T17:08:54;38.63;;;5.55;;
37609;SDS011;23457;51.966;8.230;2023-02-03T17:11:23;28.75;;;5.47;;
37609;SDS011;23457;51.966;8.230;2023-02-03T17:13:50;42.67;;;5.63;;
37609;SDS011;23457;51.966;8.230;2023-02-03T17:16:21;33.05;;;5.90;;
37609;SDS011;23457;51.966;8.230;2023-02-03T17:18:49;33.42;;;6.05;;
37609;SDS011;23457;51.966;8.230;2023-02-03T17:21:21;31.05;;;5.00;;
37609;SDS011;23457;51.966;8.230;2023-02-03T17:23:52;38.95;;;4.95;;
37609;SDS011;23457;51.966;8.230;2023-02-03T17:26:19;46.17;;;6.47;;
37609;SDS011;23457;51.966;8.230;2023-02-03T17:28:46;38.63;;;6.50;;
37609;SDS011;23457;51.966;8.230;2023-02-03T17:31:13;38.03;;;6.65;;
37609;SDS011;23457;51.966;8.230;2023-02-03T17:33:43;33.97;;;5.50;;
37609;SDS011;23457;51.966;8.230;2023-02-03T17:36:11;42.97;;;6.22;;
37609;SDS011;23457;51.966;8.230;2023-02-03T17:38:41;38.13;;;5.68;;
37609;SDS011;23457;51.966;8.230;2023-02-03T17:41:30;32.78;;;5.57;;
37609;SDS011;23457;51.966;8.230;2023-02-03T17:44:14;26.88;;;5.15;;
37609;SDS011;23457;51.966;8.230;2023-02-03T17:46:58;40.95;;;6.25;;
37609;SDS011;23457;51.966;8.230;2023-02-03T17:49:43;30.33;;;6.07;;
37609;SDS011;23457;51.966;8.230;2023-02-03T17:52:31;36.00;;;5.50;;
37609;SDS011;23457;51.966;8.230;2023-02-03T17:55:16;42.15;;;6.47;;
37609;SDS011;23457;51.966;8.230;2023-02-03T17:57:43;31.08;;;4.80;;
37609;SDS011;23457;51.966;8.230;2023-02-03T18:00:10;35.75;;;5.95;;
37609;SDS011;23457;51.966;8.230;2023-02-03T18:02:42;33.83;;;5.10;;